sensor_id;sensor_type;location;lat;lon;timestamp;P1;durP1;ratioP1;P2;durP2;ratioP2
22024;SDS011;11176;51.448;6.650;2022-11-15T00:00:53;13.13;;;8.38;;
22024;SDS011;11176;51.448;6.650;2022-11-15T00:03:38;12.15;;;8.68;;
22024;SDS011;11176;51.448;6.650;2022-11-15T00:06:23;12.55;;;8.30;;
22024;SDS011;11176;51.448;6.650;2022-11-15T00:09:08;12.52;;;8.57;;
22024;SDS011;11176;51.448;6.650;2022-11-15T00:11:53;14.77;;;9.20;;
22024;SDS011;11176;51.448;6.650;2022-11-15T00:14:38;13.80;;;8.98;;
22024;SDS011;11176;51.448;6.650;2022-11-15T00:17:22;10.75;;;7.85;;
22024;SDS011;11176;51.448;6.650;2022-11-15T00:20:08;10.23;;;8.00;;
22024;SDS011;11176;51.448;6.650;2022-11-15T00:22:53;12.02;;;8.55;;
22024;SDS011;11176;51.448;6.650;2022-11-15T00:25:38;11.65;;;9.23;;
22024;SDS011;11176;51.448;6.650;2022-11-15T00:28:23;12.55;;;8.88;;
22024;SDS011;11176;51.448;6.650;2022-11-15T00:31:11;11.55;;;7.95;;
22024;SDS011;11176;51.448;6.650;2022-11-15T00:33:57;13.23;;;8.90;;
22024;SDS011;11176;51.448;6.650;2022-11-15T00:36:42;10.85;;;7.88;;
22024;SDS011;11176;51.448;6.650;2022-11-15T00:39:27;13.15;;;8.75;;
22024;SDS011;11176;51.448;6.650;2022-11-15T00:42:12;13.50;;;8.95;;
22024;SDS011;11176;51.448;6.650;2022-11-15T00:44:57;14.60;;;8.18;;
22024;SDS011;11176;51.448;6.650;2022-11-15T00:47:44;11.27;;;7.47;;
22024;SDS011;11176;51.448;6.650;2022-11-15T00:50:30;15.52;;;8.55;;
22024;SDS011;11176;51.448;6.650;2022-11-15T00:53:15;14.10;;;8.90;;
22024;SDS011;11176;51.448;6.650;2022-11-15T00:56:01;12.27;;;7.60;;
22024;SDS011;11176;51.448;6.650;2022-11-15T00:58:45;12.82;;;8.02;;
22024;SDS011;11176;51.448;6.650;2022-11-15T01:01:30;12.55;;;8.30;;
22024;SDS011;11176;51.448;6.650;2022-11-15T01:04:16;10.13;;;7.68;;
22024;SDS011;11176;51.448;6.650;2022-11-15T01:07:00;12.32;;;8.02;;
22024;SDS011;11176;51.448;6.650;2022-11-15T01:09:45;13.88;;;8.50;;
22024;SDS011;11176;51.448;6.650;2022-11-15T01:12:30;15.13;;;8.68;;
22024;SDS011;11176;51.448;6.650;2022-11-15T01:15:16;13.52;;;8.10;;
22024;SDS011;11176;51.448;6.650;2022-11-15T01:18:02;14.77;;;8.45;;
22024;SDS011;11176;51.448;6.650;2022-11-15T01:20:47;12.27;;;7.68;;
22024;SDS011;11176;51.448;6.650;2022-11-15T01:23:32;9.88;;;7.05;;
22024;SDS011;11176;51.448;6.650;2022-11-15T01:26:17;10.20;;;7.13;;
22024;SDS011;11176;51.448;6.650;2022-11-15T01:29:02;13.93;;;8.13;;
22024;SDS011;11176;51.448;6.650;2022-11-15T01:31:47;13.52;;;8.32;;
22024;SDS011;11176;51.448;6.650;2022-11-15T01:34:32;12.35;;;8.30;;
22024;SDS011;11176;51.448;6.650;2022-11-15T01:37:17;12.23;;;7.70;;
22024;SDS011;11176;51.448;6.650;2022-11-15T01:40:02;14.23;;;7.93;;
22024;SDS011;11176;51.448;6.650;2022-11-15T01:42:48;14.73;;;8.07;;
22024;SDS011;11176;51.448;6.650;2022-11-15T01:45:33;11.77;;;8.27;;
22024;SDS011;11176;51.448;6.650;2022-11-15T01:48:18;14.23;;;8.60;;
22024;SDS011;11176;51.448;6.650;2022-11-15T01:51:04;15.02;;;8.38;;
22024;SDS011;11176;51.448;6.650;2022-11-15T01:53:54;12.63;;;7.97;;
22024;SDS011;11176;51.448;6.650;2022-11-15T01:56:46;12.82;;;7.43;;
22024;SDS011;11176;51.448;6.650;2022-11-15T01:59:38;10.73;;;7.55;;
22024;SDS011;11176;51.448;6.650;2022-11-15T02:02:27;13.40;;;8.23;;
22024;SDS011;11176;51.448;6.650;2022-11-15T02:05:12;13.77;;;7.63;;
22024;SDS011;11176;51.448;6.650;2022-11-15T02:07:57;11.85;;;8.45;;
22024;SDS011;11176;51.448;6.650;2022-11-15T02:10:48;10.70;;;7.60;;
22024;SDS011;11176;51.448;6.650;2022-11-15T02:13:33;12.15;;;7.63;;
22024;SDS011;11176;51.448;6.650;2022-11-15T02:25:22;11.55;;;7.88;;
22024;SDS011;11176;51.448;6.650;2022-11-15T02:28:38;11.18;;;7.75;;
22024;SDS011;11176;51.448;6.650;2022-11-15T02:35:50;10.10;;;7.82;;
22024;SDS011;11176;51.448;6.650;2022-11-15T02:47:24;11.02;;;7.63;;
22024;SDS011;11176;51.448;6.650;2022-11-15T02:50:13;9.50;;;7.20;;
22024;SDS011;11176;51.448;6.650;2022-11-15T02:53:01;13.35;;;7.63;;
22024;SDS011;11176;51.448;6.650;2022-11-15T02:55:48;11.68;;;7.85;;
22024;SDS011;11176;51.448;6.650;2022-11-15T02:58:48;10.98;;;7.53;;
22024;SDS011;11176;51.448;6.650;2022-11-15T03:08:22;11.57;;;7.15;;
22024;SDS011;11176;51.448;6.650;2022-11-15T03:11:14;9.35;;;7.20;;
22024;SDS011;11176;51.448;6.650;2022-11-15T03:14:18;12.98;;;7.78;;
22024;SDS011;11176;51.448;6.650;2022-11-15T03:17:25;12.43;;;7.90;;
22024;SDS011;11176;51.448;6.650;2022-11-15T03:20:14;9.35;;;6.68;;
22024;SDS011;11176;51.448;6.650;2022-11-15T03:23:04;13.18;;;7.47;;
22024;SDS011;11176;51.448;6.650;2022-11-15T03:25:53;15.18;;;7.57;;
22024;SDS011;11176;51.448;6.650;2022-11-15T03:28:50;11.60;;;7.65;;
22024;SDS011;11176;51.448;6.650;2022-11-15T03:31:39;10.30;;;7.78;;
22024;SDS011;11176;51.448;6.650;2022-11-15T03:34:47;11.75;;;7.60;;
22024;SDS011;11176;51.448;6.650;2022-11-15T03:37:41;13.23;;;7.97;;
22024;SDS011;11176;51.448;6.650;2022-11-15T03:40:39;10.18;;;7.55;;
22024;SDS011;11176;51.448;6.650;2022-11-15T03:46:33;12.93;;;7.88;;
22024;SDS011;11176;51.448;6.650;2022-11-15T03:49:32;16.73;;;7.72;;
22024;SDS011;11176;51.448;6.650;2022-11-15T03:52:20;14.60;;;7.38;;
22024;SDS011;11176;51.448;6.650;2022-11-15T03:55:07;10.60;;;7.50;;
22024;SDS011;11176;51.448;6.650;2022-11-15T03:57:56;12.93;;;7.95;;
22024;SDS011;11176;51.448;6.650;2022-11-15T04:00:43;11.68;;;8.05;;
22024;SDS011;11176;51.448;6.650;2022-11-15T04:03:28;11.88;;;7.72;;
22024;SDS011;11176;51.448;6.650;2022-11-15T04:06:14;11.90;;;7.03;;
22024;SDS011;11176;51.448;6.650;2022-11-15T04:08:59;13.98;;;7.55;;
22024;SDS011;11176;51.448;6.650;2022-11-15T04:11:44;10.57;;;7.53;;
22024;SDS011;11176;51.448;6.650;2022-11-15T04:14:29;11.98;;;7.43;;
22024;SDS011;11176;51.448;6.650;2022-11-15T04:17:14;12.90;;;7.53;;
22024;SDS011;11176;51.448;6.650;2022-11-15T04:19:59;10.05;;;7.03;;
22024;SDS011;11176;51.448;6.650;2022-11-15T04:23:04;12.25;;;6.25;;
22024;SDS011;11176;51.448;6.650;2022-11-15T04:26:12;11.02;;;6.90;;
22024;SDS011;11176;51.448;6.650;2022-11-15T04:29:00;14.15;;;7.93;;
22024;SDS011;11176;51.448;6.650;2022-11-15T04:32:05;10.68;;;7.22;;
22024;SDS011;11176;51.448;6.650;2022-11-15T04:34:51;10.38;;;7.40;;
22024;SDS011;11176;51.448;6.650;2022-11-15T04:37:36;9.68;;;7.18;;
22024;SDS011;11176;51.448;6.650;2022-11-15T04:40:20;11.27;;;7.20;;
22024;SDS011;11176;51.448;6.650;2022-11-15T04:43:05;11.85;;;7.18;;
22024;SDS011;11176;51.448;6.650;2022-11-15T04:45:50;12.90;;;7.65;;
22024;SDS011;11176;51.448;6.650;2022-11-15T04:48:36;10.57;;;6.82;;
22024;SDS011;11176;51.448;6.650;2022-11-15T04:51:21;13.23;;;7.63;;
22024;SDS011;11176;51.448;6.650;2022-11-15T04:54:06;12.20;;;6.88;;
22024;SDS011;11176;51.448;6.650;2022-11-15T04:56:51;10.45;;;7.32;;
22024;SDS011;11176;51.448;6.650;2022-11-15T04:59:35;8.15;;;6.35;;
22024;SDS011;11176;51.448;6.650;2022-11-15T05:02:20;11.73;;;6.75;;
22024;SDS011;11176;51.448;6.650;2022-11-15T05:05:05;12.48;;;7.10;;
22024;SDS011;11176;51.448;6.650;2022-11-15T05:07:50;10.80;;;6.30;;
22024;SDS011;11176;51.448;6.650;2022-11-15T05:10:36;12.48;;;6.85;;
22024;SDS011;11176;51.448;6.650;2022-11-15T05:13:20;9.38;;;6.75;;
22024;SDS011;11176;51.448;6.650;2022-11-15T05:16:05;9.43;;;6.85;;
22024;SDS011;11176;51.448;6.650;2022-11-15T05:18:51;11.02;;;6.50;;
22024;SDS011;11176;51.448;6.650;2022-11-15T05:21:37;9.73;;;6.35;;
22024;SDS011;11176;51.448;6.650;2022-11-15T05:24:22;8.88;;;6.35;;
22024;SDS011;11176;51.448;6.650;2022-11-15T05:27:07;10.70;;;6.43;;
22024;SDS011;11176;51.448;6.650;2022-11-15T05:29:52;9.48;;;6.15;;
22024;SDS011;11176;51.448;6.650;2022-11-15T05:32:37;8.25;;;5.75;;
22024;SDS011;11176;51.448;6.650;2022-11-15T05:35:27;9.95;;;6.30;;
22024;SDS011;11176;51.448;6.650;2022-11-15T05:38:16;9.82;;;6.45;;
22024;SDS011;11176;51.448;6.650;2022-11-15T05:41:01;10.02;;;6.47;;
22024;SDS011;11176;51.448;6.650;2022-11-15T05:43:47;10.38;;;6.15;;
22024;SDS011;11176;51.448;6.650;2022-11-15T05:46:34;10.13;;;6.32;;
22024;SDS011;11176;51.448;6.650;2022-11-15T05:49:23;9.50;;;5.97;;
22024;SDS011;11176;51.448;6.650;2022-11-15T05:52:12;11.68;;;6.13;;
22024;SDS011;11176;51.448;6.650;2022-11-15T05:55:00;8.40;;;5.55;;
22024;SDS011;11176;51.448;6.650;2022-11-15T05:57:46;7.88;;;5.90;;
22024;SDS011;11176;51.448;6.650;2022-11-15T06:00:32;7.82;;;4.80;;
22024;SDS011;11176;51.448;6.650;2022-11-15T06:03:17;7.72;;;5.40;;
22024;SDS011;11176;51.448;6.650;2022-11-15T06:06:02;10.27;;;6.30;;
22024;SDS011;11176;51.448;6.650;2022-11-15T06:08:47;8.45;;;6.13;;
22024;SDS011;11176;51.448;6.650;2022-11-15T06:11:32;8.30;;;5.53;;
22024;SDS011;11176;51.448;6.650;2022-11-15T06:14:17;6.85;;;4.85;;
22024;SDS011;11176;51.448;6.650;2022-11-15T06:17:02;10.77;;;6.55;;
22024;SDS011;11176;51.448;6.650;2022-11-15T06:19:54;10.05;;;6.00;;
22024;SDS011;11176;51.448;6.650;2022-11-15T06:22:39;10.63;;;6.50;;
22024;SDS011;11176;51.448;6.650;2022-11-15T06:25:25;8.73;;;6.22;;
22024;SDS011;11176;51.448;6.650;2022-11-15T06:28:11;10.65;;;6.32;;
22024;SDS011;11176;51.448;6.650;2022-11-15T06:30:56;8.68;;;5.25;;
22024;SDS011;11176;51.448;6.650;2022-11-15T06:33:41;7.82;;;5.30;;
22024;SDS011;11176;51.448;6.650;2022-11-15T06:36:26;8.20;;;5.20;;
22024;SDS011;11176;51.448;6.650;2022-11-15T06:39:11;8.38;;;5.88;;
22024;SDS011;11176;51.448;6.650;2022-11-15T06:41:56;8.75;;;6.22;;
22024;SDS011;11176;51.448;6.650;2022-11-15T06:44:41;7.72;;;5.63;;
22024;SDS011;11176;51.448;6.650;2022-11-15T06:47:26;12.05;;;6.53;;
22024;SDS011;11176;51.448;6.650;2022-11-15T06:50:11;10.63;;;6.10;;
22024;SDS011;11176;51.448;6.650;2022-11-15T06:53:00;7.65;;;5.80;;
22024;SDS011;11176;51.448;6.650;2022-11-15T06:55:46;8.48;;;5.78;;
22024;SDS011;11176;51.448;6.650;2022-11-15T06:58:38;6.82;;;4.80;;
22024;SDS011;11176;51.448;6.650;2022-11-15T07:01:23;7.20;;;4.90;;
22024;SDS011;11176;51.448;6.650;2022-11-15T07:04:08;6.95;;;4.80;;
22024;SDS011;11176;51.448;6.650;2022-11-15T07:06:53;9.68;;;4.90;;
22024;SDS011;11176;51.448;6.650;2022-11-15T07:09:38;6.72;;;4.40;;
22024;SDS011;11176;51.448;6.650;2022-11-15T07:12:23;6.78;;;5.05;;
22024;SDS011;11176;51.448;6.650;2022-11-15T07:15:08;7.03;;;4.88;;
22024;SDS011;11176;51.448;6.650;2022-11-15T07:17:54;7.45;;;4.53;;
22024;SDS011;11176;51.448;6.650;2022-11-15T07:20:38;7.00;;;4.97;;
22024;SDS011;11176;51.448;6.650;2022-11-15T07:23:24;7.78;;;5.13;;
22024;SDS011;11176;51.448;6.650;2022-11-15T07:26:09;8.93;;;5.20;;
22024;SDS011;11176;51.448;6.650;2022-11-15T07:28:55;7.00;;;4.55;;
22024;SDS011;11176;51.448;6.650;2022-11-15T07:31:40;7.65;;;4.88;;
22024;SDS011;11176;51.448;6.650;2022-11-15T07:34:24;9.43;;;4.90;;
22024;SDS011;11176;51.448;6.650;2022-11-15T07:37:10;7.45;;;3.30;;
22024;SDS011;11176;51.448;6.650;2022-11-15T07:39:55;3.90;;;2.30;;
22024;SDS011;11176;51.448;6.650;2022-11-15T07:42:40;3.60;;;2.60;;
22024;SDS011;11176;51.448;6.650;2022-11-15T07:45:44;3.80;;;2.45;;
22024;SDS011;11176;51.448;6.650;2022-11-15T07:48:30;3.78;;;2.50;;
22024;SDS011;11176;51.448;6.650;2022-11-15T07:51:27;3.78;;;2.45;;
22024;SDS011;11176;51.448;6.650;2022-11-15T07:54:12;4.05;;;2.30;;
22024;SDS011;11176;51.448;6.650;2022-11-15T07:56:57;5.85;;;2.45;;
22024;SDS011;11176;51.448;6.650;2022-11-15T07:59:49;2.92;;;2.00;;
22024;SDS011;11176;51.448;6.650;2022-11-15T08:02:34;5.15;;;1.95;;
22024;SDS011;11176;51.448;6.650;2022-11-15T08:05:19;2.88;;;1.60;;
22024;SDS011;11176;51.448;6.650;2022-11-15T08:08:04;2.90;;;0.98;;
22024;SDS011;11176;51.448;6.650;2022-11-15T08:10:49;2.47;;;1.13;;
22024;SDS011;11176;51.448;6.650;2022-11-15T08:13:35;3.15;;;0.90;;
22024;SDS011;11176;51.448;6.650;2022-11-15T08:16:20;1.60;;;0.60;;
22024;SDS011;11176;51.448;6.650;2022-11-15T08:19:05;1.52;;;0.90;;
22024;SDS011;11176;51.448;6.650;2022-11-15T08:21:50;2.15;;;0.95;;
22024;SDS011;11176;51.448;6.650;2022-11-15T08:24:35;4.03;;;1.10;;
22024;SDS011;11176;51.448;6.650;2022-11-15T08:27:20;1.73;;;0.82;;
22024;SDS011;11176;51.448;6.650;2022-11-15T08:30:05;1.80;;;1.00;;
22024;SDS011;11176;51.448;6.650;2022-11-15T08:32:51;3.38;;;1.00;;
22024;SDS011;11176;51.448;6.650;2022-11-15T08:35:38;2.40;;;0.95;;
22024;SDS011;11176;51.448;6.650;2022-11-15T08:38:25;2.42;;;0.95;;
22024;SDS011;11176;51.448;6.650;2022-11-15T08:41:16;3.40;;;1.00;;
22024;SDS011;11176;51.448;6.650;2022-11-15T08:44:23;2.15;;;0.93;;
22024;SDS011;11176;51.448;6.650;2022-11-15T08:47:10;4.38;;;1.20;;
22024;SDS011;11176;51.448;6.650;2022-11-15T08:49:56;2.35;;;0.90;;
22024;SDS011;11176;51.448;6.650;2022-11-15T08:52:41;2.85;;;0.90;;
22024;SDS011;11176;51.448;6.650;2022-11-15T08:55:26;3.20;;;1.23;;
22024;SDS011;11176;51.448;6.650;2022-11-15T08:58:11;4.63;;;1.42;;
22024;SDS011;11176;51.448;6.650;2022-11-15T09:00:56;4.32;;;1.38;;
22024;SDS011;11176;51.448;6.650;2022-11-15T09:03:41;2.85;;;1.30;;
22024;SDS011;11176;51.448;6.650;2022-11-15T09:06:26;3.90;;;1.40;;
22024;SDS011;11176;51.448;6.650;2022-11-15T09:09:11;5.30;;;1.65;;
22024;SDS011;11176;51.448;6.650;2022-11-15T09:11:56;6.28;;;1.65;;
22024;SDS011;11176;51.448;6.650;2022-11-15T09:15:01;3.28;;;1.45;;
22024;SDS011;11176;51.448;6.650;2022-11-15T09:17:47;2.95;;;1.45;;
22024;SDS011;11176;51.448;6.650;2022-11-15T09:20:32;3.42;;;1.50;;
22024;SDS011;11176;51.448;6.650;2022-11-15T09:23:17;5.65;;;1.90;;
22024;SDS011;11176;51.448;6.650;2022-11-15T09:26:03;8.85;;;3.05;;
22024;SDS011;11176;51.448;6.650;2022-11-15T09:28:49;12.10;;;4.07;;
22024;SDS011;11176;51.448;6.650;2022-11-15T09:31:34;9.48;;;3.35;;
22024;SDS011;11176;51.448;6.650;2022-11-15T09:34:20;6.38;;;2.72;;
22024;SDS011;11176;51.448;6.650;2022-11-15T09:37:05;6.22;;;2.90;;
22024;SDS011;11176;51.448;6.650;2022-11-15T09:39:50;9.27;;;3.20;;
22024;SDS011;11176;51.448;6.650;2022-11-15T09:51:39;10.45;;;3.55;;
22024;SDS011;11176;51.448;6.650;2022-11-15T09:57:16;8.85;;;3.28;;
22024;SDS011;11176;51.448;6.650;2022-11-15T09:59:55;8.23;;;3.58;;
22024;SDS011;11176;51.448;6.650;2022-11-15T10:05:59;5.13;;;3.10;;
22024;SDS011;11176;51.448;6.650;2022-11-15T10:11:31;5.05;;;2.45;;
22024;SDS011;11176;51.448;6.650;2022-11-15T10:14:11;4.20;;;1.90;;
22024;SDS011;11176;51.448;6.650;2022-11-15T10:19:53;4.18;;;2.22;;
22024;SDS011;11176;51.448;6.650;2022-11-15T10:27:50;4.22;;;1.85;;
22024;SDS011;11176;51.448;6.650;2022-11-15T10:30:19;3.53;;;1.80;;
22024;SDS011;11176;51.448;6.650;2022-11-15T10:32:46;4.80;;;1.42;;
22024;SDS011;11176;51.448;6.650;2022-11-15T10:35:16;5.70;;;1.48;;
22024;SDS011;11176;51.448;6.650;2022-11-15T10:37:44;3.03;;;1.40;;
22024;SDS011;11176;51.448;6.650;2022-11-15T10:42:48;3.10;;;1.45;;
22024;SDS011;11176;51.448;6.650;2022-11-15T10:45:30;3.88;;;1.27;;
22024;SDS011;11176;51.448;6.650;2022-11-15T10:48:41;3.83;;;1.60;;
22024;SDS011;11176;51.448;6.650;2022-11-15T10:50:49;3.50;;;1.88;;
22024;SDS011;11176;51.448;6.650;2022-11-15T10:53:25;5.78;;;2.28;;
22024;SDS011;11176;51.448;6.650;2022-11-15T10:56:12;2.85;;;1.67;;
22024;SDS011;11176;51.448;6.650;2022-11-15T10:58:42;3.80;;;1.92;;
22024;SDS011;11176;51.448;6.650;2022-11-15T11:01:12;4.45;;;1.60;;
22024;SDS011;11176;51.448;6.650;2022-11-15T11:06:54;3.55;;;1.95;;
22024;SDS011;11176;51.448;6.650;2022-11-15T11:09:32;5.63;;;1.60;;
22024;SDS011;11176;51.448;6.650;2022-11-15T11:12:04;4.00;;;1.42;;
22024;SDS011;11176;51.448;6.650;2022-11-15T11:22:30;3.67;;;1.70;;
22024;SDS011;11176;51.448;6.650;2022-11-15T11:33:19;4.63;;;1.48;;
22024;SDS011;11176;51.448;6.650;2022-11-15T11:44:32;4.63;;;1.10;;
22024;SDS011;11176;51.448;6.650;2022-11-15T11:47:00;3.78;;;1.27;;
22024;SDS011;11176;51.448;6.650;2022-11-15T11:54:47;2.83;;;1.20;;
22024;SDS011;11176;51.448;6.650;2022-11-15T12:00:02;3.08;;;1.10;;
22024;SDS011;11176;51.448;6.650;2022-11-15T12:02:40;3.50;;;1.13;;
22024;SDS011;11176;51.448;6.650;2022-11-15T12:07:58;4.20;;;1.33;;
22024;SDS011;11176;51.448;6.650;2022-11-15T12:10:30;8.68;;;1.10;;
22024;SDS011;11176;51.448;6.650;2022-11-15T12:13:10;4.03;;;1.23;;
22024;SDS011;11176;51.448;6.650;2022-11-15T12:15:41;3.05;;;0.90;;
22024;SDS011;11176;51.448;6.650;2022-11-15T12:18:14;7.60;;;1.15;;
22024;SDS011;11176;51.448;6.650;2022-11-15T12:20:48;5.72;;;0.80;;
22024;SDS011;11176;51.448;6.650;2022-11-15T12:23:20;4.07;;;0.98;;
22024;SDS011;11176;51.448;6.650;2022-11-15T12:25:56;3.17;;;0.80;;
22024;SDS011;11176;51.448;6.650;2022-11-15T12:31:43;2.20;;;0.80;;
22024;SDS011;11176;51.448;6.650;2022-11-15T12:36:47;5.70;;;0.80;;
22024;SDS011;11176;51.448;6.650;2022-11-15T12:39:15;3.25;;;0.75;;
22024;SDS011;11176;51.448;6.650;2022-11-15T12:44:11;3.00;;;0.73;;
22024;SDS011;11176;51.448;6.650;2022-11-15T12:59:56;1.95;;;0.70;;
22024;SDS011;11176;51.448;6.650;2022-11-15T13:02:29;5.60;;;1.00;;
22024;SDS011;11176;51.448;6.650;2022-11-15T13:25:19;3.75;;;0.90;;
22024;SDS011;11176;51.448;6.650;2022-11-15T13:27:53;4.93;;;0.70;;
22024;SDS011;11176;51.448;6.650;2022-11-15T13:30:30;3.17;;;0.75;;
22024;SDS011;11176;51.448;6.650;2022-11-15T13:33:01;2.42;;;0.90;;
22024;SDS011;11176;51.448;6.650;2022-11-15T13:35:36;2.47;;;0.70;;
22024;SDS011;11176;51.448;6.650;2022-11-15T13:38:06;3.22;;;0.70;;
22024;SDS011;11176;51.448;6.650;2022-11-15T13:40:35;2.40;;;0.60;;
22024;SDS011;11176;51.448;6.650;2022-11-15T13:49:01;6.15;;;1.00;;
22024;SDS011;11176;51.448;6.650;2022-11-15T13:56:57;5.53;;;0.98;;
22024;SDS011;11176;51.448;6.650;2022-11-15T13:59:28;4.38;;;0.90;;
22024;SDS011;11176;51.448;6.650;2022-11-15T14:01:57;3.00;;;1.00;;
22024;SDS011;11176;51.448;6.650;2022-11-15T14:04:27;7.55;;;1.67;;
22024;SDS011;11176;51.448;6.650;2022-11-15T14:06:57;4.70;;;1.15;;
22024;SDS011;11176;51.448;6.650;2022-11-15T14:09:30;3.38;;;1.08;;
22024;SDS011;11176;51.448;6.650;2022-11-15T14:12:02;3.45;;;1.10;;
22024;SDS011;11176;51.448;6.650;2022-11-15T14:14:52;3.97;;;1.30;;
22024;SDS011;11176;51.448;6.650;2022-11-15T14:17:20;3.92;;;1.40;;
22024;SDS011;11176;51.448;6.650;2022-11-15T14:19:55;3.28;;;1.20;;
22024;SDS011;11176;51.448;6.650;2022-11-15T14:22:24;4.65;;;1.35;;
22024;SDS011;11176;51.448;6.650;2022-11-15T14:27:39;3.80;;;1.33;;
22024;SDS011;11176;51.448;6.650;2022-11-15T14:30:12;4.68;;;1.27;;
22024;SDS011;11176;51.448;6.650;2022-11-15T14:32:47;3.78;;;1.20;;
22024;SDS011;11176;51.448;6.650;2022-11-15T14:35:17;2.92;;;0.80;;
22024;SDS011;11176;51.448;6.650;2022-11-15T14:37:46;2.53;;;0.93;;
22024;SDS011;11176;51.448;6.650;2022-11-15T14:40:14;4.70;;;0.90;;
22024;SDS011;11176;51.448;6.650;2022-11-15T14:42:47;2.17;;;0.80;;
22024;SDS011;11176;51.448;6.650;2022-11-15T14:45:16;2.35;;;0.90;;
22024;SDS011;11176;51.448;6.650;2022-11-15T14:47:44;1.98;;;0.75;;
22024;SDS011;11176;51.448;6.650;2022-11-15T14:50:12;2.88;;;0.70;;
22024;SDS011;11176;51.448;6.650;2022-11-15T14:52:42;5.57;;;1.00;;
22024;SDS011;11176;51.448;6.650;2022-11-15T14:57:47;2.92;;;0.68;;
22024;SDS011;11176;51.448;6.650;2022-11-15T15:00:14;4.30;;;1.23;;
22024;SDS011;11176;51.448;6.650;2022-11-15T15:02:41;3.05;;;0.95;;
22024;SDS011;11176;51.448;6.650;2022-11-15T15:07:45;3.80;;;1.20;;
22024;SDS011;11176;51.448;6.650;2022-11-15T15:10:12;3.58;;;1.40;;
22024;SDS011;11176;51.448;6.650;2022-11-15T15:13:00;3.45;;;1.35;;
22024;SDS011;11176;51.448;6.650;2022-11-15T15:15:32;3.15;;;1.00;;
22024;SDS011;11176;51.448;6.650;2022-11-15T15:20:26;3.95;;;1.50;;
22024;SDS011;11176;51.448;6.650;2022-11-15T15:22:54;3.55;;;1.35;;
22024;SDS011;11176;51.448;6.650;2022-11-15T15:25:27;4.47;;;1.77;;
22024;SDS011;11176;51.448;6.650;2022-11-15T15:27:59;3.95;;;1.83;;
22024;SDS011;11176;51.448;6.650;2022-11-15T15:30:26;3.53;;;2.00;;
22024;SDS011;11176;51.448;6.650;2022-11-15T15:32:54;3.58;;;1.70;;
22024;SDS011;11176;51.448;6.650;2022-11-15T15:35:20;7.32;;;2.15;;
22024;SDS011;11176;51.448;6.650;2022-11-15T15:37:48;4.97;;;2.22;;
22024;SDS011;11176;51.448;6.650;2022-11-15T15:40:17;5.10;;;2.00;;
22024;SDS011;11176;51.448;6.650;2022-11-15T15:42:46;6.85;;;2.10;;
22024;SDS011;11176;51.448;6.650;2022-11-15T15:45:14;4.45;;;1.90;;
22024;SDS011;11176;51.448;6.650;2022-11-15T15:47:41;3.85;;;1.90;;
22024;SDS011;11176;51.448;6.650;2022-11-15T15:50:20;3.10;;;1.50;;
22024;SDS011;11176;51.448;6.650;2022-11-15T15:52:50;3.65;;;1.77;;
22024;SDS011;11176;51.448;6.650;2022-11-15T15:55:17;7.40;;;4.03;;
22024;SDS011;11176;51.448;6.650;2022-11-15T15:57:44;11.90;;;7.63;;
22024;SDS011;11176;51.448;6.650;2022-11-15T16:00:11;14.40;;;10.52;;
22024;SDS011;11176;51.448;6.650;2022-11-15T16:02:38;22.60;;;14.80;;
22024;SDS011;11176;51.448;6.650;2022-11-15T16:05:06;20.42;;;13.48;;
22024;SDS011;11176;51.448;6.650;2022-11-15T16:07:33;49.03;;;32.95;;
22024;SDS011;11176;51.448;6.650;2022-11-15T16:10:01;21.92;;;16.05;;
22024;SDS011;11176;51.448;6.650;2022-11-15T16:12:32;9.25;;;7.53;;
22024;SDS011;11176;51.448;6.650;2022-11-15T16:15:00;7.68;;;4.97;;
22024;SDS011;11176;51.448;6.650;2022-11-15T16:17:29;21.48;;;16.25;;
22024;SDS011;11176;51.448;6.650;2022-11-15T16:20:00;9.15;;;7.95;;
22024;SDS011;11176;51.448;6.650;2022-11-15T16:22:26;6.60;;;3.97;;
22024;SDS011;11176;51.448;6.650;2022-11-15T16:24:55;5.85;;;2.78;;
22024;SDS011;11176;51.448;6.650;2022-11-15T16:27:22;3.33;;;2.00;;
22024;SDS011;11176;51.448;6.650;2022-11-15T16:29:49;4.32;;;2.40;;
22024;SDS011;11176;51.448;6.650;2022-11-15T16:32:15;5.70;;;3.13;;
22024;SDS011;11176;51.448;6.650;2022-11-15T16:34:42;5.20;;;2.63;;
22024;SDS011;11176;51.448;6.650;2022-11-15T16:37:20;4.68;;;2.35;;
22024;SDS011;11176;51.448;6.650;2022-11-15T16:39:48;3.35;;;1.90;;
22024;SDS011;11176;51.448;6.650;2022-11-15T16:42:15;3.45;;;2.25;;
22024;SDS011;11176;51.448;6.650;2022-11-15T16:44:41;4.40;;;2.10;;
22024;SDS011;11176;51.448;6.650;2022-11-15T16:47:26;3.78;;;1.90;;
22024;SDS011;11176;51.448;6.650;2022-11-15T16:49:52;4.38;;;1.70;;
22024;SDS011;11176;51.448;6.650;2022-11-15T16:52:18;3.20;;;1.60;;
22024;SDS011;11176;51.448;6.650;2022-11-15T16:54:46;2.65;;;1.60;;
22024;SDS011;11176;51.448;6.650;2022-11-15T16:57:13;2.28;;;1.17;;
22024;SDS011;11176;51.448;6.650;2022-11-15T16:59:39;3.60;;;1.52;;
22024;SDS011;11176;51.448;6.650;2022-11-15T17:02:11;3.28;;;1.50;;
22024;SDS011;11176;51.448;6.650;2022-11-15T17:04:38;3.50;;;1.80;;
22024;SDS011;11176;51.448;6.650;2022-11-15T17:07:04;3.15;;;1.67;;
22024;SDS011;11176;51.448;6.650;2022-11-15T17:09:32;2.75;;;1.50;;
22024;SDS011;11176;51.448;6.650;2022-11-15T17:11:59;4.18;;;1.60;;
22024;SDS011;11176;51.448;6.650;2022-11-15T17:14:25;3.58;;;1.55;;
22024;SDS011;11176;51.448;6.650;2022-11-15T17:16:52;4.22;;;2.47;;
22024;SDS011;11176;51.448;6.650;2022-11-15T17:19:20;7.28;;;2.72;;
22024;SDS011;11176;51.448;6.650;2022-11-15T17:21:47;14.73;;;8.30;;
22024;SDS011;11176;51.448;6.650;2022-11-15T17:24:17;27.13;;;15.18;;
22024;SDS011;11176;51.448;6.650;2022-11-15T17:26:45;41.88;;;23.25;;
22024;SDS011;11176;51.448;6.650;2022-11-15T17:29:12;20.80;;;13.75;;
22024;SDS011;11176;51.448;6.650;2022-11-15T17:31:38;17.70;;;10.05;;
22024;SDS011;11176;51.448;6.650;2022-11-15T17:34:05;13.70;;;8.52;;
22024;SDS011;11176;51.448;6.650;2022-11-15T17:36:32;8.23;;;4.60;;
22024;SDS011;11176;51.448;6.650;2022-11-15T17:38:59;5.43;;;2.50;;
22024;SDS011;11176;51.448;6.650;2022-11-15T17:41:26;4.85;;;2.40;;
22024;SDS011;11176;51.448;6.650;2022-11-15T17:43:57;6.85;;;2.45;;
22024;SDS011;11176;51.448;6.650;2022-11-15T17:46:25;4.68;;;2.33;;
22024;SDS011;11176;51.448;6.650;2022-11-15T17:48:53;6.35;;;2.65;;
22024;SDS011;11176;51.448;6.650;2022-11-15T17:51:20;4.65;;;2.47;;
22024;SDS011;11176;51.448;6.650;2022-11-15T17:53:48;5.10;;;2.50;;
22024;SDS011;11176;51.448;6.650;2022-11-15T17:56:16;5.68;;;2.65;;
22024;SDS011;11176;51.448;6.650;2022-11-15T17:58:48;4.38;;;2.05;;
22024;SDS011;11176;51.448;6.650;2022-11-15T18:01:17;8.15;;;2.63;;
22024;SDS011;11176;51.448;6.650;2022-11-15T18:03:46;5.38;;;2.58;;
22024;SDS011;11176;51.448;6.650;2022-11-15T18:06:13;5.10;;;3.05;;
22024;SDS011;11176;51.448;6.650;2022-11-15T18:08:41;7.32;;;3.70;;
22024;SDS011;11176;51.448;6.650;2022-11-15T18:11:13;9.30;;;4.88;;
22024;SDS011;11176;51.448;6.650;2022-11-15T18:13:46;7.30;;;4.30;;
22024;SDS011;11176;51.448;6.650;2022-11-15T18:16:19;10.55;;;3.92;;
22024;SDS011;11176;51.448;6.650;2022-11-15T18:18:47;10.32;;;5.80;;
22024;SDS011;11176;51.448;6.650;2022-11-15T18:21:14;6.97;;;4.07;;
22024;SDS011;11176;51.448;6.650;2022-11-15T18:23:51;7.53;;;3.92;;
22024;SDS011;11176;51.448;6.650;2022-11-15T18:26:19;5.10;;;2.70;;
22024;SDS011;11176;51.448;6.650;2022-11-15T18:28:52;70.75;;;36.80;;
22024;SDS011;11176;51.448;6.650;2022-11-15T18:31:27;57.53;;;32.05;;
22024;SDS011;11176;51.448;6.650;2022-11-15T18:33:54;52.38;;;29.13;;
22024;SDS011;11176;51.448;6.650;2022-11-15T18:36:22;44.42;;;25.83;;
22024;SDS011;11176;51.448;6.650;2022-11-15T18:38:57;34.13;;;19.83;;
22024;SDS011;11176;51.448;6.650;2022-11-15T18:41:27;72.72;;;42.58;;